sensor_id;sensor_type;location;lat;lon;timestamp;P1;durP1;ratioP1;P2;durP2;ratioP2
32826;SDS011;51059;42.058;27.986;2022-10-16T00:01:46;12.43;;;4.40;;
32826;SDS011;51059;42.058;27.986;2022-10-16T00:04:12;14.03;;;4.23;;
32826;SDS011;51059;42.058;27.986;2022-10-16T00:06:37;17.17;;;4.27;;
32826;SDS011;51059;42.058;27.986;2022-10-16T00:09:03;15.57;;;4.40;;
32826;SDS011;51059;42.058;27.986;2022-10-16T00:11:31;18.10;;;4.50;;
32826;SDS011;51059;42.058;27.986;2022-10-16T00:13:59;13.47;;;3.90;;
32826;SDS011;51059;42.058;27.986;2022-10-16T00:16:25;16.20;;;3.83;;
32826;SDS011;51059;42.058;27.986;2022-10-16T00:18:52;9.73;;;3.73;;
32826;SDS011;51059;42.058;27.986;2022-10-16T00:21:19;14.63;;;3.90;;
32826;SDS011;51059;42.058;27.986;2022-10-16T00:23:53;13.47;;;4.40;;
32826;SDS011;51059;42.058;27.986;2022-10-16T00:26:20;16.00;;;4.27;;
32826;SDS011;51059;42.058;27.986;2022-10-16T00:28:46;14.27;;;4.20;;
32826;SDS011;51059;42.058;27.986;2022-10-16T00:31:13;15.53;;;3.90;;
32826;SDS011;51059;42.058;27.986;2022-10-16T00:33:39;11.90;;;4.13;;
32826;SDS011;51059;42.058;27.986;2022-10-16T00:36:06;19.27;;;4.93;;
32826;SDS011;51059;42.058;27.986;2022-10-16T00:38:33;19.43;;;4.73;;
32826;SDS011;51059;42.058;27.986;2022-10-16T00:40:58;13.23;;;4.50;;
32826;SDS011;51059;42.058;27.986;2022-10-16T00:43:44;12.37;;;4.10;;
32826;SDS011;51059;42.058;27.986;2022-10-16T00:46:19;15.07;;;4.70;;
32826;SDS011;51059;42.058;27.986;2022-10-16T00:49:00;13.90;;;3.47;;
32826;SDS011;51059;42.058;27.986;2022-10-16T00:51:33;13.83;;;3.63;;
32826;SDS011;51059;42.058;27.986;2022-10-16T00:54:03;13.20;;;3.87;;
32826;SDS011;51059;42.058;27.986;2022-10-16T00:56:30;13.80;;;4.17;;
32826;SDS011;51059;42.058;27.986;2022-10-16T00:58:57;11.40;;;3.83;;
32826;SDS011;51059;42.058;27.986;2022-10-16T01:01:23;17.40;;;4.17;;
32826;SDS011;51059;42.058;27.986;2022-10-16T01:03:48;19.00;;;5.50;;
32826;SDS011;51059;42.058;27.986;2022-10-16T01:06:24;9.53;;;3.93;;
32826;SDS011;51059;42.058;27.986;2022-10-16T01:09:30;13.83;;;3.63;;
32826;SDS011;51059;42.058;27.986;2022-10-16T01:12:04;14.20;;;4.90;;
32826;SDS011;51059;42.058;27.986;2022-10-16T01:17:13;19.17;;;4.87;;
32826;SDS011;51059;42.058;27.986;2022-10-16T01:19:50;17.93;;;4.47;;
32826;SDS011;51059;42.058;27.986;2022-10-16T01:22:16;13.10;;;5.13;;
32826;SDS011;51059;42.058;27.986;2022-10-16T01:24:46;16.90;;;4.67;;
32826;SDS011;51059;42.058;27.986;2022-10-16T01:27:15;7.63;;;3.63;;
32826;SDS011;51059;42.058;27.986;2022-10-16T01:30:07;11.53;;;4.03;;
32826;SDS011;51059;42.058;27.986;2022-10-16T01:32:37;19.17;;;5.10;;
32826;SDS011;51059;42.058;27.986;2022-10-16T01:35:04;13.97;;;4.20;;
32826;SDS011;51059;42.058;27.986;2022-10-16T01:37:36;9.23;;;3.97;;
32826;SDS011;51059;42.058;27.986;2022-10-16T01:40:05;9.63;;;3.83;;
32826;SDS011;51059;42.058;27.986;2022-10-16T01:42:36;15.80;;;4.93;;
32826;SDS011;51059;42.058;27.986;2022-10-16T01:45:04;12.83;;;6.83;;
32826;SDS011;51059;42.058;27.986;2022-10-16T01:47:32;18.37;;;6.80;;
32826;SDS011;51059;42.058;27.986;2022-10-16T01:49:59;14.43;;;6.40;;
32826;SDS011;51059;42.058;27.986;2022-10-16T01:52:29;13.07;;;6.00;;
32826;SDS011;51059;42.058;27.986;2022-10-16T01:54:58;14.50;;;6.43;;
32826;SDS011;51059;42.058;27.986;2022-10-16T01:57:24;19.97;;;6.83;;
32826;SDS011;51059;42.058;27.986;2022-10-16T01:59:52;14.00;;;5.87;;
32826;SDS011;51059;42.058;27.986;2022-10-16T02:02:20;16.23;;;6.20;;
32826;SDS011;51059;42.058;27.986;2022-10-16T02:04:48;10.23;;;4.60;;
32826;SDS011;51059;42.058;27.986;2022-10-16T02:07:21;14.97;;;4.90;;
32826;SDS011;51059;42.058;27.986;2022-10-16T02:09:47;12.43;;;5.07;;
32826;SDS011;51059;42.058;27.986;2022-10-16T02:12:24;14.17;;;6.80;;
32826;SDS011;51059;42.058;27.986;2022-10-16T02:14:52;19.13;;;6.93;;
32826;SDS011;51059;42.058;27.986;2022-10-16T02:17:18;11.97;;;6.50;;
32826;SDS011;51059;42.058;27.986;2022-10-16T02:19:45;17.50;;;7.03;;
32826;SDS011;51059;42.058;27.986;2022-10-16T02:22:15;13.23;;;7.97;;
32826;SDS011;51059;42.058;27.986;2022-10-16T02:27:27;19.67;;;9.67;;
32826;SDS011;51059;42.058;27.986;2022-10-16T02:30:00;17.50;;;9.00;;
32826;SDS011;51059;42.058;27.986;2022-10-16T02:32:32;21.23;;;9.33;;
32826;SDS011;51059;42.058;27.986;2022-10-16T02:34:59;17.87;;;8.57;;
32826;SDS011;51059;42.058;27.986;2022-10-16T02:37:25;12.77;;;7.83;;
32826;SDS011;51059;42.058;27.986;2022-10-16T02:39:52;18.43;;;7.90;;
32826;SDS011;51059;42.058;27.986;2022-10-16T02:42:18;13.97;;;7.10;;
32826;SDS011;51059;42.058;27.986;2022-10-16T02:44:44;19.50;;;7.00;;
32826;SDS011;51059;42.058;27.986;2022-10-16T02:47:10;17.10;;;7.87;;
32826;SDS011;51059;42.058;27.986;2022-10-16T02:49:35;13.53;;;7.20;;
32826;SDS011;51059;42.058;27.986;2022-10-16T02:52:01;18.27;;;10.27;;
32826;SDS011;51059;42.058;27.986;2022-10-16T02:54:26;20.03;;;11.13;;
32826;SDS011;51059;42.058;27.986;2022-10-16T02:56:52;18.40;;;10.70;;
32826;SDS011;51059;42.058;27.986;2022-10-16T02:59:17;21.17;;;12.03;;
32826;SDS011;51059;42.058;27.986;2022-10-16T03:01:43;23.93;;;12.57;;
32826;SDS011;51059;42.058;27.986;2022-10-16T03:04:09;19.57;;;11.53;;
32826;SDS011;51059;42.058;27.986;2022-10-16T03:06:34;19.87;;;11.80;;
32826;SDS011;51059;42.058;27.986;2022-10-16T03:09:00;21.63;;;11.27;;
32826;SDS011;51059;42.058;27.986;2022-10-16T03:11:26;20.07;;;12.07;;
32826;SDS011;51059;42.058;27.986;2022-10-16T03:13:53;21.23;;;11.13;;
32826;SDS011;51059;42.058;27.986;2022-10-16T03:16:18;18.87;;;12.03;;
32826;SDS011;51059;42.058;27.986;2022-10-16T03:18:47;16.23;;;10.60;;
32826;SDS011;51059;42.058;27.986;2022-10-16T03:21:14;22.23;;;11.50;;
32826;SDS011;51059;42.058;27.986;2022-10-16T03:23:40;22.40;;;12.73;;
32826;SDS011;51059;42.058;27.986;2022-10-16T03:26:06;24.23;;;11.97;;
32826;SDS011;51059;42.058;27.986;2022-10-16T03:28:31;23.77;;;11.27;;
32826;SDS011;51059;42.058;27.986;2022-10-16T03:30:57;18.40;;;11.53;;
32826;SDS011;51059;42.058;27.986;2022-10-16T03:33:22;21.43;;;10.10;;
32826;SDS011;51059;42.058;27.986;2022-10-16T03:35:51;15.60;;;8.97;;
32826;SDS011;51059;42.058;27.986;2022-10-16T03:38:18;26.97;;;10.07;;
32826;SDS011;51059;42.058;27.986;2022-10-16T03:40:43;20.90;;;9.97;;
32826;SDS011;51059;42.058;27.986;2022-10-16T03:43:09;22.40;;;11.90;;
32826;SDS011;51059;42.058;27.986;2022-10-16T03:45:35;20.93;;;11.83;;
32826;SDS011;51059;42.058;27.986;2022-10-16T03:48:00;25.07;;;12.27;;
32826;SDS011;51059;42.058;27.986;2022-10-16T03:50:27;21.30;;;11.70;;
32826;SDS011;51059;42.058;27.986;2022-10-16T03:52:53;23.73;;;11.03;;
32826;SDS011;51059;42.058;27.986;2022-10-16T03:55:18;20.93;;;11.53;;
32826;SDS011;51059;42.058;27.986;2022-10-16T03:57:44;20.73;;;11.67;;
32826;SDS011;51059;42.058;27.986;2022-10-16T04:00:10;23.07;;;12.70;;
32826;SDS011;51059;42.058;27.986;2022-10-16T04:02:36;18.70;;;11.03;;
32826;SDS011;51059;42.058;27.986;2022-10-16T04:05:01;21.77;;;11.47;;
32826;SDS011;51059;42.058;27.986;2022-10-16T04:07:27;17.87;;;10.17;;
32826;SDS011;51059;42.058;27.986;2022-10-16T04:09:53;15.27;;;9.73;;
32826;SDS011;51059;42.058;27.986;2022-10-16T04:12:19;24.40;;;10.60;;
32826;SDS011;51059;42.058;27.986;2022-10-16T04:14:45;23.07;;;8.93;;
32826;SDS011;51059;42.058;27.986;2022-10-16T04:17:10;16.40;;;9.90;;
32826;SDS011;51059;42.058;27.986;2022-10-16T04:19:36;21.43;;;11.03;;
32826;SDS011;51059;42.058;27.986;2022-10-16T04:22:01;23.70;;;12.20;;
32826;SDS011;51059;42.058;27.986;2022-10-16T04:24:27;19.83;;;10.37;;
32826;SDS011;51059;42.058;27.986;2022-10-16T04:26:53;24.27;;;10.53;;
32826;SDS011;51059;42.058;27.986;2022-10-16T04:29:18;20.30;;;9.97;;
32826;SDS011;51059;42.058;27.986;2022-10-16T04:31:44;23.60;;;10.97;;
32826;SDS011;51059;42.058;27.986;2022-10-16T04:34:10;22.07;;;10.53;;
32826;SDS011;51059;42.058;27.986;2022-10-16T04:36:35;23.73;;;11.17;;
32826;SDS011;51059;42.058;27.986;2022-10-16T04:39:01;21.70;;;12.03;;
32826;SDS011;51059;42.058;27.986;2022-10-16T04:41:26;22.83;;;11.30;;
32826;SDS011;51059;42.058;27.986;2022-10-16T04:43:52;25.13;;;11.67;;
32826;SDS011;51059;42.058;27.986;2022-10-16T04:46:18;21.03;;;9.80;;
32826;SDS011;51059;42.058;27.986;2022-10-16T04:48:43;23.63;;;11.30;;
32826;SDS011;51059;42.058;27.986;2022-10-16T04:51:09;23.13;;;11.07;;
32826;SDS011;51059;42.058;27.986;2022-10-16T04:53:35;21.60;;;11.20;;
32826;SDS011;51059;42.058;27.986;2022-10-16T04:56:00;21.53;;;10.73;;
32826;SDS011;51059;42.058;27.986;2022-10-16T04:58:26;20.67;;;10.50;;
32826;SDS011;51059;42.058;27.986;2022-10-16T05:00:51;17.03;;;9.90;;
32826;SDS011;51059;42.058;27.986;2022-10-16T05:03:17;16.43;;;9.73;;
32826;SDS011;51059;42.058;27.986;2022-10-16T05:05:43;14.47;;;9.53;;
32826;SDS011;51059;42.058;27.986;2022-10-16T05:08:10;21.20;;;9.53;;
32826;SDS011;51059;42.058;27.986;2022-10-16T05:10:36;16.07;;;9.77;;
32826;SDS011;51059;42.058;27.986;2022-10-16T05:13:02;25.03;;;9.80;;
32826;SDS011;51059;42.058;27.986;2022-10-16T05:15:28;25.73;;;9.90;;
32826;SDS011;51059;42.058;27.986;2022-10-16T05:17:54;21.77;;;9.47;;
32826;SDS011;51059;42.058;27.986;2022-10-16T05:20:20;19.10;;;9.50;;
32826;SDS011;51059;42.058;27.986;2022-10-16T05:22:46;22.20;;;9.97;;
32826;SDS011;51059;42.058;27.986;2022-10-16T05:25:12;18.07;;;9.67;;
32826;SDS011;51059;42.058;27.986;2022-10-16T05:27:37;21.43;;;9.87;;
32826;SDS011;51059;42.058;27.986;2022-10-16T05:30:03;17.60;;;9.57;;
32826;SDS011;51059;42.058;27.986;2022-10-16T05:32:29;14.57;;;9.63;;
32826;SDS011;51059;42.058;27.986;2022-10-16T05:34:55;20.63;;;9.77;;
32826;SDS011;51059;42.058;27.986;2022-10-16T05:37:20;15.47;;;9.97;;
32826;SDS011;51059;42.058;27.986;2022-10-16T05:39:46;16.83;;;9.83;;
32826;SDS011;51059;42.058;27.986;2022-10-16T05:42:12;20.83;;;10.10;;
32826;SDS011;51059;42.058;27.986;2022-10-16T05:44:37;17.70;;;9.60;;
32826;SDS011;51059;42.058;27.986;2022-10-16T05:47:03;28.33;;;10.60;;
32826;SDS011;51059;42.058;27.986;2022-10-16T05:49:29;23.17;;;10.97;;
32826;SDS011;51059;42.058;27.986;2022-10-16T05:51:54;23.43;;;10.73;;
32826;SDS011;51059;42.058;27.986;2022-10-16T05:54:20;25.60;;;11.03;;
32826;SDS011;51059;42.058;27.986;2022-10-16T05:56:45;24.30;;;10.37;;
32826;SDS011;51059;42.058;27.986;2022-10-16T05:59:11;23.70;;;9.97;;
32826;SDS011;51059;42.058;27.986;2022-10-16T06:01:37;21.00;;;9.53;;
32826;SDS011;51059;42.058;27.986;2022-10-16T06:04:02;24.30;;;9.90;;
32826;SDS011;51059;42.058;27.986;2022-10-16T06:06:28;17.20;;;9.33;;
32826;SDS011;51059;42.058;27.986;2022-10-16T06:08:55;18.70;;;9.67;;
32826;SDS011;51059;42.058;27.986;2022-10-16T06:11:22;19.07;;;8.40;;
32826;SDS011;51059;42.058;27.986;2022-10-16T06:13:53;23.40;;;9.20;;
32826;SDS011;51059;42.058;27.986;2022-10-16T06:16:19;17.37;;;9.57;;
32826;SDS011;51059;42.058;27.986;2022-10-16T06:18:45;27.43;;;9.57;;
32826;SDS011;51059;42.058;27.986;2022-10-16T06:21:12;21.70;;;8.17;;
32826;SDS011;51059;42.058;27.986;2022-10-16T06:23:40;23.23;;;8.57;;
32826;SDS011;51059;42.058;27.986;2022-10-16T06:26:06;24.37;;;7.87;;
32826;SDS011;51059;42.058;27.986;2022-10-16T06:28:36;20.17;;;8.43;;
32826;SDS011;51059;42.058;27.986;2022-10-16T06:31:02;19.50;;;8.20;;
32826;SDS011;51059;42.058;27.986;2022-10-16T06:33:29;17.60;;;7.73;;
32826;SDS011;51059;42.058;27.986;2022-10-16T06:36:04;20.23;;;9.03;;
32826;SDS011;51059;42.058;27.986;2022-10-16T06:38:33;18.83;;;7.90;;
32826;SDS011;51059;42.058;27.986;2022-10-16T06:40:59;19.60;;;7.73;;
32826;SDS011;51059;42.058;27.986;2022-10-16T06:43:25;21.37;;;7.60;;
32826;SDS011;51059;42.058;27.986;2022-10-16T06:45:52;22.93;;;7.80;;
32826;SDS011;51059;42.058;27.986;2022-10-16T06:48:18;19.93;;;8.10;;
32826;SDS011;51059;42.058;27.986;2022-10-16T06:50:54;19.57;;;8.20;;
32826;SDS011;51059;42.058;27.986;2022-10-16T06:53:28;21.80;;;7.53;;
32826;SDS011;51059;42.058;27.986;2022-10-16T06:55:54;19.10;;;7.87;;
32826;SDS011;51059;42.058;27.986;2022-10-16T06:58:20;17.33;;;7.87;;
32826;SDS011;51059;42.058;27.986;2022-10-16T07:00:46;17.67;;;8.33;;
32826;SDS011;51059;42.058;27.986;2022-10-16T07:03:12;18.20;;;8.80;;
32826;SDS011;51059;42.058;27.986;2022-10-16T07:05:38;17.57;;;8.33;;
32826;SDS011;51059;42.058;27.986;2022-10-16T07:08:04;26.57;;;9.40;;
32826;SDS011;51059;42.058;27.986;2022-10-16T07:10:30;17.53;;;8.60;;
32826;SDS011;51059;42.058;27.986;2022-10-16T07:12:56;15.43;;;9.17;;
32826;SDS011;51059;42.058;27.986;2022-10-16T07:15:22;17.80;;;10.13;;
32826;SDS011;51059;42.058;27.986;2022-10-16T07:17:48;26.37;;;9.50;;
32826;SDS011;51059;42.058;27.986;2022-10-16T07:20:13;21.60;;;10.60;;
32826;SDS011;51059;42.058;27.986;2022-10-16T07:22:39;27.00;;;11.00;;
32826;SDS011;51059;42.058;27.986;2022-10-16T07:25:05;24.80;;;9.90;;
32826;SDS011;51059;42.058;27.986;2022-10-16T07:27:31;23.83;;;10.67;;
32826;SDS011;51059;42.058;27.986;2022-10-16T07:29:56;17.40;;;10.50;;
32826;SDS011;51059;42.058;27.986;2022-10-16T07:32:22;26.73;;;11.57;;
32826;SDS011;51059;42.058;27.986;2022-10-16T07:34:48;20.40;;;11.37;;
32826;SDS011;51059;42.058;27.986;2022-10-16T07:37:14;25.27;;;11.00;;
32826;SDS011;51059;42.058;27.986;2022-10-16T07:39:39;30.30;;;11.93;;
32826;SDS011;51059;42.058;27.986;2022-10-16T07:42:05;24.47;;;11.30;;
32826;SDS011;51059;42.058;27.986;2022-10-16T07:44:31;23.40;;;10.33;;
32826;SDS011;51059;42.058;27.986;2022-10-16T07:46:56;22.20;;;9.67;;
32826;SDS011;51059;42.058;27.986;2022-10-16T07:49:22;14.57;;;7.40;;
32826;SDS011;51059;42.058;27.986;2022-10-16T07:51:48;18.37;;;8.60;;
32826;SDS011;51059;42.058;27.986;2022-10-16T07:54:13;19.50;;;9.00;;
32826;SDS011;51059;42.058;27.986;2022-10-16T07:56:39;17.23;;;7.70;;
32826;SDS011;51059;42.058;27.986;2022-10-16T07:59:05;20.83;;;10.93;;
32826;SDS011;51059;42.058;27.986;2022-10-16T08:01:30;24.27;;;9.90;;
32826;SDS011;51059;42.058;27.986;2022-10-16T08:03:56;15.33;;;8.33;;
32826;SDS011;51059;42.058;27.986;2022-10-16T08:06:21;19.57;;;9.30;;
32826;SDS011;51059;42.058;27.986;2022-10-16T08:08:47;21.50;;;8.53;;
32826;SDS011;51059;42.058;27.986;2022-10-16T08:11:13;17.80;;;8.83;;
32826;SDS011;51059;42.058;27.986;2022-10-16T08:13:40;19.97;;;9.60;;
32826;SDS011;51059;42.058;27.986;2022-10-16T08:16:06;20.07;;;10.20;;
32826;SDS011;51059;42.058;27.986;2022-10-16T08:18:36;19.37;;;9.17;;
32826;SDS011;51059;42.058;27.986;2022-10-16T08:21:03;24.70;;;10.33;;
32826;SDS011;51059;42.058;27.986;2022-10-16T08:23:29;18.10;;;9.50;;
32826;SDS011;51059;42.058;27.986;2022-10-16T08:25:55;20.27;;;9.43;;
32826;SDS011;51059;42.058;27.986;2022-10-16T08:28:22;24.60;;;9.40;;
32826;SDS011;51059;42.058;27.986;2022-10-16T08:30:48;24.83;;;9.73;;
32826;SDS011;51059;42.058;27.986;2022-10-16T08:33:14;19.17;;;9.20;;
32826;SDS011;51059;42.058;27.986;2022-10-16T08:35:39;19.33;;;8.57;;
32826;SDS011;51059;42.058;27.986;2022-10-16T08:38:05;19.20;;;8.90;;
32826;SDS011;51059;42.058;27.986;2022-10-16T08:40:32;19.60;;;8.60;;
32826;SDS011;51059;42.058;27.986;2022-10-16T08:43:09;14.53;;;8.10;;
32826;SDS011;51059;42.058;27.986;2022-10-16T08:51:24;20.87;;;9.23;;
32826;SDS011;51059;42.058;27.986;2022-10-16T08:53:55;22.60;;;9.40;;
32826;SDS011;51059;42.058;27.986;2022-10-16T08:56:23;18.27;;;8.07;;
32826;SDS011;51059;42.058;27.986;2022-10-16T08:58:49;19.43;;;8.97;;
32826;SDS011;51059;42.058;27.986;2022-10-16T09:01:17;20.23;;;8.40;;
32826;SDS011;51059;42.058;27.986;2022-10-16T09:06:46;22.70;;;8.80;;
32826;SDS011;51059;42.058;27.986;2022-10-16T09:12:21;19.37;;;8.30;;
32826;SDS011;51059;42.058;27.986;2022-10-16T09:15:07;13.63;;;6.83;;
32826;SDS011;51059;42.058;27.986;2022-10-16T09:22:53;20.23;;;8.23;;
32826;SDS011;51059;42.058;27.986;2022-10-16T09:25:26;19.20;;;8.13;;
32826;SDS011;51059;42.058;27.986;2022-10-16T09:27:52;19.47;;;8.30;;
32826;SDS011;51059;42.058;27.986;2022-10-16T09:30:19;22.53;;;8.30;;
32826;SDS011;51059;42.058;27.986;2022-10-16T09:32:48;18.17;;;8.20;;
32826;SDS011;51059;42.058;27.986;2022-10-16T09:35:22;26.83;;;8.23;;
32826;SDS011;51059;42.058;27.986;2022-10-16T09:37:55;17.27;;;8.40;;
32826;SDS011;51059;42.058;27.986;2022-10-16T09:40:28;25.30;;;8.60;;
32826;SDS011;51059;42.058;27.986;2022-10-16T09:45:43;27.37;;;9.60;;
32826;SDS011;51059;42.058;27.986;2022-10-16T09:48:21;20.67;;;8.20;;
32826;SDS011;51059;42.058;27.986;2022-10-16T09:51:00;15.20;;;7.43;;
32826;SDS011;51059;42.058;27.986;2022-10-16T09:53:46;16.97;;;8.17;;
32826;SDS011;51059;42.058;27.986;2022-10-16T09:56:20;23.33;;;8.40;;
32826;SDS011;51059;42.058;27.986;2022-10-16T09:58:52;16.33;;;7.77;;
32826;SDS011;51059;42.058;27.986;2022-10-16T10:01:22;19.77;;;8.07;;
32826;SDS011;51059;42.058;27.986;2022-10-16T10:03:55;14.53;;;7.53;;
32826;SDS011;51059;42.058;27.986;2022-10-16T10:06:27;12.00;;;6.60;;
32826;SDS011;51059;42.058;27.986;2022-10-16T10:08:56;16.27;;;6.40;;
32826;SDS011;51059;42.058;27.986;2022-10-16T10:11:39;13.60;;;6.00;;
32826;SDS011;51059;42.058;27.986;2022-10-16T10:14:14;16.97;;;7.00;;
32826;SDS011;51059;42.058;27.986;2022-10-16T10:16:45;15.53;;;6.50;;
32826;SDS011;51059;42.058;27.986;2022-10-16T10:19:18;16.40;;;6.87;;
32826;SDS011;51059;42.058;27.986;2022-10-16T10:21:45;18.60;;;6.50;;
32826;SDS011;51059;42.058;27.986;2022-10-16T10:24:15;20.33;;;6.63;;
32826;SDS011;51059;42.058;27.986;2022-10-16T10:26:44;17.30;;;6.30;;
32826;SDS011;51059;42.058;27.986;2022-10-16T10:32:29;19.47;;;6.70;;
32826;SDS011;51059;42.058;27.986;2022-10-16T10:35:13;13.33;;;5.60;;
32826;SDS011;51059;42.058;27.986;2022-10-16T10:37:56;12.30;;;6.27;;
32826;SDS011;51059;42.058;27.986;2022-10-16T10:40:39;19.37;;;5.87;;
32826;SDS011;51059;42.058;27.986;2022-10-16T10:46:22;13.47;;;5.40;;
32826;SDS011;51059;42.058;27.986;2022-10-16T10:51:56;15.37;;;5.53;;
32826;SDS011;51059;42.058;27.986;2022-10-16T10:54:41;22.40;;;6.33;;
32826;SDS011;51059;42.058;27.986;2022-10-16T11:00:41;15.93;;;5.73;;
32826;SDS011;51059;42.058;27.986;2022-10-16T11:02:52;22.77;;;5.83;;
32826;SDS011;51059;42.058;27.986;2022-10-16T11:10:52;16.90;;;5.13;;
32826;SDS011;51059;42.058;27.986;2022-10-16T11:15:53;10.63;;;5.30;;
32826;SDS011;51059;42.058;27.986;2022-10-16T11:18:24;10.93;;;5.13;;
32826;SDS011;51059;42.058;27.986;2022-10-16T11:20:59;13.70;;;5.97;;
32826;SDS011;51059;42.058;27.986;2022-10-16T11:23:29;16.57;;;5.57;;
32826;SDS011;51059;42.058;27.986;2022-10-16T11:25:59;11.60;;;5.33;;
32826;SDS011;51059;42.058;27.986;2022-10-16T11:28:34;13.37;;;4.77;;
32826;SDS011;51059;42.058;27.986;2022-10-16T11:31:08;15.37;;;5.40;;
32826;SDS011;51059;42.058;27.986;2022-10-16T11:33:42;14.30;;;5.47;;
32826;SDS011;51059;42.058;27.986;2022-10-16T11:36:12;12.73;;;5.60;;
32826;SDS011;51059;42.058;27.986;2022-10-16T11:38:50;14.67;;;4.90;;
32826;SDS011;51059;42.058;27.986;2022-10-16T11:44:19;16.77;;;6.00;;
32826;SDS011;51059;42.058;27.986;2022-10-16T11:47:11;13.77;;;5.30;;
32826;SDS011;51059;42.058;27.986;2022-10-16T11:49:40;15.10;;;5.70;;
32826;SDS011;51059;42.058;27.986;2022-10-16T11:52:13;11.43;;;6.00;;
32826;SDS011;51059;42.058;27.986;2022-10-16T11:54:47;16.97;;;5.70;;
32826;SDS011;51059;42.058;27.986;2022-10-16T11:58:02;15.63;;;6.13;;
32826;SDS011;51059;42.058;27.986;2022-10-16T12:00:23;16.23;;;5.80;;
32826;SDS011;51059;42.058;27.986;2022-10-16T12:03:23;15.47;;;6.00;;
32826;SDS011;51059;42.058;27.986;2022-10-16T12:08:45;15.70;;;6.23;;
32826;SDS011;51059;42.058;27.986;2022-10-16T12:19:31;16.13;;;6.07;;
32826;SDS011;51059;42.058;27.986;2022-10-16T12:21:58;12.43;;;5.80;;
32826;SDS011;51059;42.058;27.986;2022-10-16T12:24:37;20.03;;;6.27;;
32826;SDS011;51059;42.058;27.986;2022-10-16T12:27:06;15.63;;;5.67;;
32826;SDS011;51059;42.058;27.986;2022-10-16T12:29:48;9.57;;;4.93;;
32826;SDS011;51059;42.058;27.986;2022-10-16T12:32:26;13.57;;;5.27;;
32826;SDS011;51059;42.058;27.986;2022-10-16T12:34:56;15.17;;;5.03;;
32826;SDS011;51059;42.058;27.986;2022-10-16T12:37:35;13.30;;;5.17;;
32826;SDS011;51059;42.058;27.986;2022-10-16T12:40:12;18.00;;;5.23;;
32826;SDS011;51059;42.058;27.986;2022-10-16T12:42:38;9.83;;;5.37;;
32826;SDS011;51059;42.058;27.986;2022-10-16T12:47:50;11.90;;;4.90;;
32826;SDS011;51059;42.058;27.986;2022-10-16T12:50:37;15.63;;;4.90;;
32826;SDS011;51059;42.058;27.986;2022-10-16T12:53:04;11.97;;;5.10;;
32826;SDS011;51059;42.058;27.986;2022-10-16T12:56:03;12.87;;;5.80;;
32826;SDS011;51059;42.058;27.986;2022-10-16T12:58:48;13.33;;;5.30;;
32826;SDS011;51059;42.058;27.986;2022-10-16T13:04:10;9.80;;;5.30;;
32826;SDS011;51059;42.058;27.986;2022-10-16T13:06:47;16.80;;;6.30;;
32826;SDS011;51059;42.058;27.986;2022-10-16T13:12:06;15.77;;;6.03;;
32826;SDS011;51059;42.058;27.986;2022-10-16T13:22:59;15.23;;;6.60;;
32826;SDS011;51059;42.058;27.986;2022-10-16T13:25:32;19.77;;;6.80;;
32826;SDS011;51059;42.058;27.986;2022-10-16T13:28:09;18.00;;;6.30;;
32826;SDS011;51059;42.058;27.986;2022-10-16T13:33:05;18.87;;;6.23;;
32826;SDS011;51059;42.058;27.986;2022-10-16T13:35:34;13.40;;;5.70;;
32826;SDS011;51059;42.058;27.986;2022-10-16T13:38:14;10.77;;;5.30;;
32826;SDS011;51059;42.058;27.986;2022-10-16T13:40:51;20.50;;;6.20;;
32826;SDS011;51059;42.058;27.986;2022-10-16T13:43:22;18.13;;;5.70;;
32826;SDS011;51059;42.058;27.986;2022-10-16T13:46:02;11.67;;;5.27;;
32826;SDS011;51059;42.058;27.986;2022-10-16T13:48:37;16.95;;;5.50;;
32826;SDS011;51059;42.058;27.986;2022-10-16T13:53:32;13.00;;;4.80;;
32826;SDS011;51059;42.058;27.986;2022-10-16T13:55:59;8.67;;;4.50;;
32826;SDS011;51059;42.058;27.986;2022-10-16T13:58:25;12.03;;;4.87;;
32826;SDS011;51059;42.058;27.986;2022-10-16T14:00:55;9.27;;;4.40;;
32826;SDS011;51059;42.058;27.986;2022-10-16T14:03:22;11.93;;;4.30;;
32826;SDS011;51059;42.058;27.986;2022-10-16T14:05:49;18.87;;;4.53;;
32826;SDS011;51059;42.058;27.986;2022-10-16T14:08:20;10.60;;;3.70;;
32826;SDS011;51059;42.058;27.986;2022-10-16T14:10:47;9.27;;;4.50;;
32826;SDS011;51059;42.058;27.986;2022-10-16T14:13:16;11.40;;;4.37;;
32826;SDS011;51059;42.058;27.986;2022-10-16T14:15:45;10.70;;;4.17;;
32826;SDS011;51059;42.058;27.986;2022-10-16T14:18:17;14.03;;;4.67;;
32826;SDS011;51059;42.058;27.986;2022-10-16T14:20:45;8.77;;;4.10;;
32826;SDS011;51059;42.058;27.986;2022-10-16T14:28:34;13.47;;;4.13;;
32826;SDS011;51059;42.058;27.986;2022-10-16T14:31:02;14.30;;;4.30;;
32826;SDS011;51059;42.058;27.986;2022-10-16T14:38:36;8.97;;;3.57;;
32826;SDS011;51059;42.058;27.986;2022-10-16T14:41:03;9.87;;;3.80;;
32826;SDS011;51059;42.058;27.986;2022-10-16T14:46:14;9.87;;;3.57;;
32826;SDS011;51059;42.058;27.986;2022-10-16T14:48:42;13.13;;;4.00;;
32826;SDS011;51059;42.058;27.986;2022-10-16T14:51:13;8.67;;;3.03;;
32826;SDS011;51059;42.058;27.986;2022-10-16T14:53:40;10.57;;;4.03;;
32826;SDS011;51059;42.058;27.986;2022-10-16T14:56:07;11.53;;;3.97;;
32826;SDS011;51059;42.058;27.986;2022-10-16T14:58:33;11.33;;;3.67;;
32826;SDS011;51059;42.058;27.986;2022-10-16T15:00:59;10.97;;;3.80;;
32826;SDS011;51059;42.058;27.986;2022-10-16T15:03:25;10.33;;;4.20;;
32826;SDS011;51059;42.058;27.986;2022-10-16T15:05:50;10.77;;;4.13;;
32826;SDS011;51059;42.058;27.986;2022-10-16T15:08:16;13.60;;;4.17;;
32826;SDS011;51059;42.058;27.986;2022-10-16T15:10:42;13.43;;;4.27;;
32826;SDS011;51059;42.058;27.986;2022-10-16T15:13:12;11.67;;;3.97;;
32826;SDS011;51059;42.058;27.986;2022-10-16T15:15:42;12.60;;;4.50;;
32826;SDS011;51059;42.058;27.986;2022-10-16T15:18:10;14.03;;;4.03;;
32826;SDS011;51059;42.058;27.986;2022-10-16T15:20:37;11.77;;;4.30;;
32826;SDS011;51059;42.058;27.986;2022-10-16T15:23:13;10.20;;;4.43;;
32826;SDS011;51059;42.058;27.986;2022-10-16T15:25:42;14.47;;;4.53;;
32826;SDS011;51059;42.058;27.986;2022-10-16T15:28:08;10.97;;;4.77;;
32826;SDS011;51059;42.058;27.986;2022-10-16T15:30:34;11.30;;;4.20;;
32826;SDS011;51059;42.058;27.986;2022-10-16T15:33:01;9.03;;;3.67;;
32826;SDS011;51059;42.058;27.986;2022-10-16T15:35:27;12.27;;;4.20;;
32826;SDS011;51059;42.058;27.986;2022-10-16T15:37:52;7.70;;;4.27;;
32826;SDS011;51059;42.058;27.986;2022-10-16T15:40:18;12.27;;;4.90;;
32826;SDS011;51059;42.058;27.986;2022-10-16T15:42:45;9.70;;;4.30;;
32826;SDS011;51059;42.058;27.986;2022-10-16T15:45:12;12.33;;;4.80;;
32826;SDS011;51059;42.058;27.986;2022-10-16T15:47:38;11.30;;;4.73;;
32826;SDS011;51059;42.058;27.986;2022-10-16T15:50:04;12.73;;;5.00;;
32826;SDS011;51059;42.058;27.986;2022-10-16T15:52:30;15.70;;;5.20;;
32826;SDS011;51059;42.058;27.986;2022-10-16T15:54:57;11.93;;;5.43;;
32826;SDS011;51059;42.058;27.986;2022-10-16T15:57:23;14.00;;;4.47;;
32826;SDS011;51059;42.058;27.986;2022-10-16T15:59:49;9.47;;;4.50;;
32826;SDS011;51059;42.058;27.986;2022-10-16T16:02:15;10.37;;;4.43;;
32826;SDS011;51059;42.058;27.986;2022-10-16T16:04:40;11.10;;;4.57;;
32826;SDS011;51059;42.058;27.986;2022-10-16T16:07:06;15.53;;;5.83;;